createdAt,value
2017-09-03T00:01:13.802Z,11.60
2017-09-03T00:03:40.461Z,11.60
2017-09-03T00:06:06.845Z,11.60
2017-09-03T00:08:33.264Z,11.60
2017-09-03T00:10:59.665Z,11.60
2017-09-03T00:13:26.076Z,11.50
2017-09-03T00:15:52.441Z,11.60
2017-09-03T00:18:18.804Z,11.60
2017-09-03T00:20:45.522Z,11.60
2017-09-03T00:23:11.911Z,11.60
2017-09-03T00:25:38.306Z,11.50
2017-09-03T00:28:04.677Z,11.60
2017-09-03T00:30:31.055Z,11.50
2017-09-03T00:32:57.468Z,11.60
2017-09-03T00:35:23.831Z,11.50
2017-09-03T00:37:50.253Z,11.50
2017-09-03T00:40:16.597Z,11.50
2017-09-03T00:42:43.258Z,11.60
2017-09-03T00:45:09.652Z,11.50
2017-09-03T00:47:36.066Z,11.50
2017-09-03T00:50:02.744Z,11.50
2017-09-03T00:52:29.127Z,11.60
2017-09-03T00:54:55.571Z,11.60
2017-09-03T00:57:21.988Z,11.60
2017-09-03T00:59:48.364Z,11.50
2017-09-03T01:02:14.753Z,11.50
2017-09-03T01:04:41.484Z,11.60
2017-09-03T01:07:07.879Z,11.50
2017-09-03T01:09:34.283Z,11.50
2017-09-03T01:12:00.656Z,11.60
2017-09-03T01:14:26.992Z,11.60
2017-09-03T01:16:53.435Z,11.60
2017-09-03T01:19:19.833Z,11.60
2017-09-03T01:21:46.218Z,11.50
2017-09-03T01:24:12.553Z,11.50
2017-09-03T01:26:39.175Z,11.40
2017-09-03T01:29:05.541Z,11.40
2017-09-03T01:31:31.859Z,11.40
2017-09-03T01:33:58.261Z,11.30
2017-09-03T01:36:24.646Z,11.30
2017-09-03T01:38:51.074Z,11.30
2017-09-03T01:41:17.440Z,11.30
2017-09-03T01:43:44.153Z,11.30
2017-09-03T01:46:10.554Z,11.30
2017-09-03T01:48:36.948Z,11.20
2017-09-03T01:51:03.355Z,11.20
2017-09-03T01:53:29.758Z,11.20
2017-09-03T01:55:56.151Z,11.30
2017-09-03T01:58:22.554Z,11.30
2017-09-03T02:00:48.935Z,11.20
2017-09-03T02:03:15.323Z,11.30
2017-09-03T02:05:41.716Z,11.20
2017-09-03T02:08:08.110Z,11.20
2017-09-03T02:10:34.477Z,11.20
2017-09-03T02:13:00.794Z,11.20
2017-09-03T02:15:27.144Z,11.20
2017-09-03T02:17:53.891Z,11.10
2017-09-03T02:20:20.291Z,11.20
2017-09-03T02:22:46.617Z,11.20
2017-09-03T02:25:13.046Z,11.20
2017-09-03T02:27:39.382Z,11.20
2017-09-03T02:30:05.782Z,11.20
2017-09-03T02:32:32.114Z,11.20
2017-09-03T02:34:58.483Z,11.20
2017-09-03T02:37:24.878Z,11.20
2017-09-03T02:39:51.512Z,11.20
2017-09-03T02:42:17.884Z,11.20
2017-09-03T02:44:44.242Z,11.10
2017-09-03T02:47:10.721Z,11.10
2017-09-03T02:49:37.091Z,11.20
2017-09-03T02:52:03.483Z,11.20
2017-09-03T02:54:29.861Z,11.20
2017-09-03T02:56:56.226Z,11.20
2017-09-03T02:59:22.581Z,11.20
2017-09-03T03:01:48.933Z,11.20
2017-09-03T03:04:16.694Z,11.20
2017-09-03T03:06:43.357Z,11.20
2017-09-03T03:09:09.708Z,11.20
2017-09-03T03:11:36.093Z,11.20
2017-09-03T03:14:02.464Z,11.30
2017-09-03T03:16:28.874Z,11.30
2017-09-03T03:18:55.292Z,11.30
2017-09-03T03:21:21.714Z,11.30
2017-09-03T03:23:48.073Z,11.30
2017-09-03T03:26:14.449Z,11.30
2017-09-03T03:28:41.145Z,11.30
2017-09-03T03:31:07.525Z,11.30
2017-09-03T03:33:33.862Z,11.30
2017-09-03T03:36:00.257Z,11.30
2017-09-03T03:38:26.611Z,11.30
2017-09-03T03:40:52.982Z,11.30
2017-09-03T03:43:19.350Z,11.30
2017-09-03T03:45:45.740Z,11.40
2017-09-03T03:48:12.170Z,11.40
2017-09-03T03:50:38.554Z,11.40
2017-09-03T03:53:04.935Z,11.40
2017-09-03T03:55:31.676Z,11.40
2017-09-03T03:57:58.004Z,11.40
2017-09-03T04:00:24.394Z,11.30
2017-09-03T04:02:50.751Z,11.30
2017-09-03T04:05:17.145Z,11.30
2017-09-03T04:07:43.510Z,11.30
2017-09-03T04:10:09.901Z,11.20
2017-09-03T04:12:36.355Z,11.20
2017-09-03T04:15:02.731Z,11.20
2017-09-03T04:20:18.104Z,11.20
2017-09-03T04:22:44.823Z,11.20
2017-09-03T04:25:11.199Z,11.20
2017-09-03T04:27:37.522Z,11.10
2017-09-03T04:30:03.918Z,11.10
2017-09-03T04:32:30.306Z,11.10
2017-09-03T04:34:56.653Z,11.10
2017-09-03T04:37:23.014Z,11.10
2017-09-03T04:39:49.382Z,11.10
2017-09-03T04:42:15.734Z,11.00
2017-09-03T04:44:42.395Z,11.00
2017-09-03T04:47:08.830Z,11.00
2017-09-03T04:49:35.247Z,11.00
2017-09-03T04:52:01.622Z,11.00
2017-09-03T04:54:27.981Z,11.00
2017-09-03T04:56:54.368Z,11.00
2017-09-03T04:59:20.701Z,11.00
2017-09-03T05:01:47.131Z,11.00
2017-09-03T05:04:13.501Z,11.00
2017-09-03T05:06:40.264Z,11.00
2017-09-03T05:09:06.663Z,10.90
2017-09-03T05:11:33.020Z,10.90
2017-09-03T05:14:02.864Z,10.90
2017-09-03T05:16:29.262Z,10.90
2017-09-03T05:18:55.612Z,10.90
2017-09-03T05:21:21.979Z,10.90
2017-09-03T05:23:48.387Z,10.90
2017-09-03T05:26:14.750Z,10.90
2017-09-03T05:28:41.115Z,10.90
2017-09-03T05:31:07.486Z,10.90
2017-09-03T05:33:34.187Z,10.80
2017-09-03T05:36:00.544Z,10.90
2017-09-03T05:38:26.921Z,10.90
2017-09-03T05:40:53.338Z,10.90
2017-09-03T05:43:19.665Z,10.90
2017-09-03T05:45:46.039Z,10.90
2017-09-03T05:48:12.527Z,10.90
2017-09-03T05:50:39.163Z,10.90
2017-09-03T05:53:05.518Z,10.90
2017-09-03T05:55:31.899Z,10.90
2017-09-03T05:57:58.281Z,10.90
2017-09-03T06:00:24.659Z,11.00
2017-09-03T06:02:51.023Z,11.00
2017-09-03T06:05:17.413Z,11.00
2017-09-03T06:07:44.132Z,11.10
2017-09-03T06:10:10.504Z,11.20
2017-09-03T06:12:36.876Z,11.20
2017-09-03T06:15:03.311Z,11.30
2017-09-03T06:17:29.605Z,11.30
2017-09-03T06:19:55.969Z,11.30
2017-09-03T06:22:22.347Z,11.40
2017-09-03T06:24:48.738Z,11.40
2017-09-03T06:27:15.189Z,11.40
2017-09-03T06:29:41.932Z,11.50
2017-09-03T06:32:08.317Z,11.50
2017-09-03T06:34:34.845Z,11.60
2017-09-03T06:37:01.276Z,11.60
2017-09-03T06:39:27.685Z,11.60
2017-09-03T06:41:54.202Z,11.70
2017-09-03T06:44:20.591Z,11.60
2017-09-03T06:46:47.125Z,11.70
2017-09-03T06:49:13.554Z,11.80
2017-09-03T06:51:39.895Z,11.80
2017-09-03T06:54:06.319Z,11.90
2017-09-03T06:56:33.090Z,12.00
2017-09-03T06:58:59.469Z,12.00
2017-09-03T07:01:25.906Z,12.00
2017-09-03T07:03:52.351Z,12.10
2017-09-03T07:06:18.757Z,12.10
2017-09-03T07:08:45.322Z,12.20
2017-09-03T07:11:11.811Z,12.40
2017-09-03T07:13:38.216Z,12.60
2017-09-03T07:16:04.602Z,12.70
2017-09-03T07:18:30.940Z,12.70
2017-09-03T07:20:57.301Z,12.90
2017-09-03T07:23:23.688Z,13.00
2017-09-03T07:25:56.955Z,13.10
2017-09-03T07:28:23.343Z,13.20
2017-09-03T07:30:49.718Z,13.20
2017-09-03T07:33:16.091Z,13.40
2017-09-03T07:35:42.799Z,13.60
2017-09-03T07:38:09.172Z,13.80
2017-09-03T07:40:35.502Z,14.10
2017-09-03T07:43:01.855Z,14.30
2017-09-03T07:45:28.263Z,14.40
2017-09-03T07:47:54.748Z,14.40
2017-09-03T07:50:21.106Z,14.30
2017-09-03T07:52:47.524Z,14.30
2017-09-03T07:55:13.903Z,14.30
2017-09-03T07:57:40.692Z,14.30
2017-09-03T08:00:07.065Z,14.20
2017-09-03T08:02:33.576Z,14.20
2017-09-03T08:05:00.084Z,14.30
2017-09-03T08:07:26.471Z,14.30
2017-09-03T08:09:53.030Z,14.20
2017-09-03T08:12:19.446Z,14.30
2017-09-03T08:14:45.850Z,14.40
2017-09-03T08:17:12.217Z,14.60
2017-09-03T08:19:38.645Z,14.60
2017-09-03T08:22:05.002Z,14.50
2017-09-03T08:24:31.418Z,14.50
2017-09-03T08:26:57.867Z,14.40
2017-09-03T08:29:24.260Z,14.30
2017-09-03T08:31:50.667Z,14.30
2017-09-03T08:34:17.158Z,14.40
2017-09-03T08:36:43.585Z,14.30
2017-09-03T08:39:10.025Z,14.20
2017-09-03T08:41:36.425Z,14.20
2017-09-03T08:44:02.850Z,14.10
2017-09-03T08:46:29.248Z,14.10
2017-09-03T08:48:55.783Z,13.90
2017-09-03T08:51:22.182Z,13.90
2017-09-03T08:53:48.582Z,13.80
2017-09-03T08:56:15.007Z,14.00
2017-09-03T08:58:41.408Z,14.00
2017-09-03T09:01:07.784Z,13.90
2017-09-03T09:03:34.215Z,13.90
2017-09-03T09:06:00.562Z,13.90
2017-09-03T09:08:26.947Z,14.10
2017-09-03T09:10:53.357Z,14.20
2017-09-03T09:13:19.878Z,14.20
2017-09-03T09:15:46.276Z,14.20
2017-09-03T09:18:12.641Z,14.10
2017-09-03T09:20:39.136Z,14.10
2017-09-03T09:23:05.504Z,14.00
2017-09-03T09:25:31.914Z,13.90
2017-09-03T09:27:58.388Z,13.90
2017-09-03T09:30:24.802Z,13.90
2017-09-03T09:32:51.165Z,13.90
2017-09-03T09:35:17.511Z,14.00
2017-09-03T09:37:43.924Z,14.00
2017-09-03T09:40:10.411Z,14.00
2017-09-03T09:42:36.787Z,14.00
2017-09-03T09:45:03.174Z,14.00
2017-09-03T09:47:29.621Z,14.00
2017-09-03T09:49:56.068Z,14.00
2017-09-03T09:52:22.433Z,14.10
2017-09-03T09:54:48.851Z,14.10
2017-09-03T09:57:15.365Z,14.20
2017-09-03T09:59:41.792Z,14.30
2017-09-03T10:02:08.185Z,14.30
2017-09-03T10:04:34.651Z,14.40
2017-09-03T10:07:01.075Z,14.50
2017-09-03T10:09:27.532Z,14.50
2017-09-03T10:11:53.981Z,14.50
2017-09-03T10:14:20.839Z,14.60
2017-09-03T10:16:50.111Z,14.80
2017-09-03T10:19:16.485Z,15.00
2017-09-03T10:21:42.961Z,15.30
2017-09-03T10:24:09.367Z,15.50
2017-09-03T10:26:35.867Z,15.80
2017-09-03T10:29:02.316Z,16.10
2017-09-03T10:31:28.841Z,16.20
2017-09-03T10:33:55.267Z,16.20
2017-09-03T10:36:21.789Z,16.30
2017-09-03T10:38:48.300Z,16.60
2017-09-03T10:41:14.680Z,16.90
2017-09-03T10:43:41.048Z,17.30
2017-09-03T10:46:07.562Z,17.70
2017-09-03T10:48:33.986Z,17.60
2017-09-03T10:51:00.419Z,17.40
2017-09-03T10:53:26.794Z,17.20
2017-09-03T10:55:53.159Z,17.20
2017-09-03T10:58:19.593Z,17.30
2017-09-03T11:00:46.020Z,17.40
2017-09-03T11:03:12.435Z,17.30
2017-09-03T11:05:38.892Z,17.00
2017-09-03T11:08:05.265Z,16.60
2017-09-03T11:10:31.748Z,16.20
2017-09-03T11:12:58.128Z,16.00
2017-09-03T11:15:24.549Z,15.70
2017-09-03T11:17:50.951Z,15.50
2017-09-03T11:20:17.478Z,15.40
2017-09-03T11:22:43.917Z,15.30
2017-09-03T11:25:10.300Z,15.30
2017-09-03T11:27:36.719Z,15.20
2017-09-03T11:30:03.199Z,15.10
2017-09-03T11:32:29.641Z,15.20
2017-09-03T11:34:56.280Z,15.60
2017-09-03T11:37:22.738Z,15.90
2017-09-03T11:39:49.112Z,16.20
2017-09-03T11:42:15.470Z,16.40
2017-09-03T11:44:41.852Z,16.80
2017-09-03T11:47:08.296Z,17.60
2017-09-03T11:49:34.673Z,18.40
2017-09-03T11:52:01.146Z,19.00
2017-09-03T11:54:27.755Z,19.00
2017-09-03T11:56:54.626Z,18.70
2017-09-03T11:59:21.010Z,18.20
2017-09-03T12:01:47.404Z,18.00
2017-09-03T12:04:13.803Z,17.90
2017-09-03T12:06:40.179Z,17.60
2017-09-03T12:09:06.769Z,17.10
2017-09-03T12:11:33.156Z,16.50
2017-09-03T12:13:59.533Z,16.00
2017-09-03T12:16:25.968Z,15.70
2017-09-03T12:18:52.376Z,15.40
2017-09-03T12:21:19.294Z,15.10
2017-09-03T12:23:45.777Z,14.90
2017-09-03T12:26:12.245Z,14.80
2017-09-03T12:28:38.699Z,14.90
2017-09-03T12:31:05.488Z,14.90
2017-09-03T12:33:31.905Z,15.10
2017-09-03T12:35:58.285Z,15.30
2017-09-03T12:38:24.678Z,15.60
2017-09-03T12:40:51.124Z,16.00
2017-09-03T12:43:17.508Z,16.20
2017-09-03T12:45:43.897Z,16.40
2017-09-03T12:48:10.340Z,16.40
2017-09-03T12:50:36.744Z,16.40
2017-09-03T12:53:03.209Z,16.40
2017-09-03T12:55:29.583Z,16.50
2017-09-03T12:57:55.958Z,16.50
2017-09-03T13:00:22.351Z,16.50
2017-09-03T13:02:48.733Z,16.50
2017-09-03T13:05:15.100Z,16.60
2017-09-03T13:07:41.507Z,16.60
2017-09-03T13:10:07.923Z,16.60
2017-09-03T13:12:34.386Z,16.80
2017-09-03T13:15:00.793Z,16.90
2017-09-03T13:17:27.212Z,17.10
2017-09-03T13:19:53.839Z,17.10
2017-09-03T13:22:20.251Z,17.00
2017-09-03T13:24:46.703Z,16.80
2017-09-03T13:27:13.217Z,16.50
2017-09-03T13:29:39.603Z,16.20
2017-09-03T13:32:06.028Z,16.10
2017-09-03T13:34:32.580Z,15.90
2017-09-03T13:36:59.000Z,15.80
2017-09-03T13:39:25.397Z,15.80
2017-09-03T13:41:51.979Z,15.90
2017-09-03T13:44:18.451Z,16.00
2017-09-03T13:46:44.870Z,16.30
2017-09-03T13:49:11.341Z,16.70
2017-09-03T13:51:37.782Z,17.10
2017-09-03T13:54:04.161Z,17.20
2017-09-03T13:56:30.600Z,17.10
2017-09-03T13:58:57.012Z,17.00
2017-09-03T14:01:23.434Z,16.70
2017-09-03T14:03:49.981Z,16.40
2017-09-03T14:06:16.376Z,16.20
2017-09-03T14:08:42.767Z,16.20
2017-09-03T14:11:09.178Z,16.50
2017-09-03T14:13:36.591Z,16.90
2017-09-03T14:16:02.974Z,17.10
2017-09-03T14:18:29.389Z,17.00
2017-09-03T14:20:55.778Z,16.90
2017-09-03T14:23:22.298Z,16.90
2017-09-03T14:25:48.917Z,16.70
2017-09-03T14:28:15.471Z,16.60
2017-09-03T14:30:41.976Z,16.40
2017-09-03T14:33:08.485Z,16.20
2017-09-03T14:35:35.211Z,16.10
2017-09-03T14:38:01.620Z,16.50
2017-09-03T14:40:28.004Z,17.00
2017-09-03T14:42:54.495Z,17.30
2017-09-03T14:45:20.834Z,17.30
2017-09-03T14:47:47.725Z,17.10
2017-09-03T14:50:14.099Z,16.80
2017-09-03T14:52:40.521Z,16.40
2017-09-03T14:55:06.957Z,16.20
2017-09-03T14:57:33.404Z,16.00
2017-09-03T14:59:59.902Z,15.70
2017-09-03T15:02:26.365Z,15.50
2017-09-03T15:04:52.787Z,15.20
2017-09-03T15:07:19.248Z,14.90
2017-09-03T15:09:45.643Z,14.70
2017-09-03T15:12:13.037Z,14.60
2017-09-03T15:14:39.429Z,14.40
2017-09-03T15:17:05.961Z,14.20
2017-09-03T15:19:32.780Z,14.10
2017-09-03T15:21:59.431Z,14.00
2017-09-03T15:24:33.267Z,14.00
2017-09-03T15:26:59.656Z,14.00
2017-09-03T15:29:26.110Z,14.00
2017-09-03T15:31:52.603Z,14.00
2017-09-03T15:34:19.074Z,14.00
2017-09-03T15:36:45.521Z,14.00
2017-09-03T15:39:12.511Z,14.10
2017-09-03T15:41:39.024Z,14.10
2017-09-03T15:44:05.470Z,14.00
2017-09-03T15:46:31.819Z,13.90
2017-09-03T15:48:58.581Z,13.80
2017-09-03T15:51:25.447Z,13.70
2017-09-03T15:53:52.212Z,13.60
2017-09-03T15:56:18.816Z,13.40
2017-09-03T15:58:45.341Z,13.30
2017-09-03T16:01:11.779Z,13.20
2017-09-03T16:03:38.349Z,13.20
2017-09-03T16:06:04.839Z,13.10
2017-09-03T16:08:31.234Z,13.00
2017-09-03T16:10:57.744Z,13.00
2017-09-03T16:13:24.264Z,13.00
2017-09-03T16:15:50.721Z,13.00
2017-09-03T16:18:17.384Z,13.00
2017-09-03T16:20:44.177Z,13.00
2017-09-03T16:23:10.659Z,13.00
2017-09-03T16:25:37.045Z,13.00
2017-09-03T16:28:03.849Z,13.10
2017-09-03T16:30:30.308Z,13.10
2017-09-03T16:32:56.771Z,13.30
2017-09-03T16:35:23.204Z,13.30
2017-09-03T16:37:49.633Z,13.40
2017-09-03T16:40:16.038Z,13.50
2017-09-03T16:42:42.971Z,13.70
2017-09-03T16:45:09.606Z,14.00
2017-09-03T16:47:36.130Z,14.30
2017-09-03T16:50:02.591Z,14.50
2017-09-03T16:52:29.055Z,14.80
2017-09-03T16:54:55.788Z,14.90
2017-09-03T16:57:22.332Z,15.00
2017-09-03T16:59:48.780Z,14.80
2017-09-03T17:02:15.279Z,14.70
2017-09-03T17:04:41.682Z,14.50
2017-09-03T17:07:08.159Z,14.40
2017-09-03T17:09:34.682Z,14.20
2017-09-03T17:12:01.916Z,14.00
2017-09-03T17:14:28.361Z,14.00
2017-09-03T17:16:54.818Z,14.00
2017-09-03T17:19:21.273Z,13.80
2017-09-03T17:21:47.757Z,13.70
2017-09-03T17:24:14.234Z,13.50
2017-09-03T17:26:40.650Z,13.40
2017-09-03T17:29:07.368Z,13.30
2017-09-03T17:34:22.670Z,13.00
2017-09-03T17:36:49.974Z,12.90
2017-09-03T17:39:16.579Z,12.90
2017-09-03T17:44:40.894Z,12.50
2017-09-03T17:47:08.307Z,12.50
2017-09-03T17:49:34.805Z,12.40
2017-09-03T17:52:01.249Z,12.30
2017-09-03T17:54:27.930Z,12.30
2017-09-03T17:56:54.568Z,12.20
2017-09-03T17:59:21.371Z,12.10
2017-09-03T18:01:47.842Z,12.10
2017-09-03T18:04:14.342Z,12.00
2017-09-03T18:06:40.938Z,11.90
2017-09-03T18:09:07.457Z,11.90
2017-09-03T18:11:33.941Z,11.80
2017-09-03T18:14:00.422Z,11.80
2017-09-03T18:16:27.439Z,11.70
2017-09-03T18:18:55.026Z,11.70
2017-09-03T18:21:22.434Z,11.70
2017-09-03T18:23:48.984Z,11.60
2017-09-03T18:26:15.450Z,11.60
2017-09-03T18:28:42.727Z,11.50
2017-09-03T18:31:19.119Z,11.50
2017-09-03T18:33:45.591Z,11.40
2017-09-03T18:36:21.915Z,11.40
2017-09-03T18:41:45.135Z,11.20
2017-09-03T18:44:11.896Z,11.20
2017-09-03T18:46:40.258Z,11.10
2017-09-03T18:49:06.855Z,11.10
2017-09-03T18:51:33.544Z,11.00
2017-09-03T18:54:00.922Z,11.00
2017-09-03T18:56:30.422Z,11.00
2017-09-03T18:59:02.939Z,11.00
2017-09-03T19:01:29.494Z,11.00
2017-09-03T19:03:55.957Z,11.00
2017-09-03T19:06:26.375Z,10.90
2017-09-03T19:08:52.933Z,10.90
2017-09-03T19:11:19.814Z,10.80
2017-09-03T19:13:46.289Z,10.80
2017-09-03T19:16:12.795Z,10.80
2017-09-03T19:18:39.364Z,10.80
2017-09-03T19:21:05.877Z,10.70
2017-09-03T19:23:32.386Z,10.70
2017-09-03T19:25:58.967Z,10.80
2017-09-03T19:28:25.476Z,10.70
2017-09-03T19:30:51.986Z,10.70
2017-09-03T19:33:18.467Z,10.70
2017-09-03T19:35:44.987Z,10.70
2017-09-03T19:38:11.507Z,10.70
2017-09-03T19:40:38.074Z,10.70
2017-09-03T19:43:04.483Z,10.70
2017-09-03T19:45:30.953Z,10.70
2017-09-03T19:47:57.891Z,10.70
2017-09-03T19:50:24.849Z,10.60
2017-09-03T19:52:51.359Z,10.70
2017-09-03T19:55:17.882Z,10.70
2017-09-03T19:57:44.370Z,10.70
2017-09-03T20:00:10.831Z,10.70
2017-09-03T20:02:37.356Z,10.70
2017-09-03T20:05:03.825Z,10.70
2017-09-03T20:07:30.492Z,10.60
2017-09-03T20:09:57.006Z,10.60
2017-09-03T20:12:23.488Z,10.60
2017-09-03T20:14:50.045Z,10.50
2017-09-03T20:17:16.560Z,10.50
2017-09-03T20:19:43.258Z,10.50
2017-09-03T20:22:09.796Z,10.50
2017-09-03T20:24:36.235Z,10.50
2017-09-03T20:27:02.729Z,10.50
2017-09-03T20:29:29.305Z,10.50
2017-09-03T20:31:56.176Z,10.50
2017-09-03T20:34:22.729Z,10.50
2017-09-03T20:36:49.197Z,10.40
2017-09-03T20:39:15.663Z,10.30
2017-09-03T20:41:42.240Z,10.30
2017-09-03T20:44:08.760Z,10.20
2017-09-03T20:46:36.517Z,10.20
2017-09-03T20:49:02.988Z,10.20
2017-09-03T20:51:29.606Z,10.10
2017-09-03T20:53:56.151Z,10.10
2017-09-03T20:56:22.703Z,10.10
2017-09-03T20:58:49.260Z,10.10
2017-09-03T21:01:15.797Z,10.00
2017-09-03T21:03:42.332Z,10.00
2017-09-03T21:06:08.798Z,10.00
2017-09-03T21:08:35.500Z,10.00
2017-09-03T21:11:02.030Z,10.10
2017-09-03T21:13:28.514Z,10.10
2017-09-03T21:15:54.873Z,10.10
2017-09-03T21:18:21.280Z,10.10
2017-09-03T21:20:47.709Z,10.10
2017-09-03T21:23:14.171Z,10.00
2017-09-03T21:25:41.543Z,10.10
2017-09-03T21:28:08.099Z,10.10
2017-09-03T21:30:34.519Z,10.00
2017-09-03T21:33:01.701Z,10.00
2017-09-03T21:35:29.164Z,10.00
2017-09-03T21:37:55.691Z,10.00
2017-09-03T21:40:22.702Z,10.00
2017-09-03T21:42:49.091Z,10.00
2017-09-03T21:45:15.658Z,9.90
2017-09-03T21:47:42.201Z,10.00
2017-09-03T21:50:08.569Z,10.00
2017-09-03T21:52:35.099Z,10.00
2017-09-03T21:55:01.533Z,10.00
2017-09-03T21:57:27.990Z,10.00
2017-09-03T21:59:54.487Z,10.00
2017-09-03T22:02:21.027Z,10.00
2017-09-03T22:04:47.618Z,10.00
2017-09-03T22:07:14.539Z,10.00
2017-09-03T22:09:41.071Z,10.00
2017-09-03T22:12:07.556Z,10.00
2017-09-03T22:14:34.280Z,9.90
2017-09-03T22:17:00.809Z,9.90
2017-09-03T22:19:27.370Z,9.90
2017-09-03T22:21:53.954Z,9.80
2017-09-03T22:24:20.351Z,9.80
2017-09-03T22:26:46.728Z,9.80
2017-09-03T22:29:13.162Z,9.70
2017-09-03T22:31:39.600Z,9.70
2017-09-03T22:34:06.495Z,9.70
2017-09-03T22:36:32.898Z,9.70
2017-09-03T22:38:59.265Z,9.70
2017-09-03T22:41:26.013Z,9.70
2017-09-03T22:43:52.698Z,9.60
2017-09-03T22:46:19.199Z,9.60
2017-09-03T22:48:45.842Z,9.60
2017-09-03T22:51:12.229Z,9.50
2017-09-03T22:53:38.775Z,9.50
2017-09-03T22:56:05.170Z,9.50
2017-09-03T22:58:31.636Z,9.40
2017-09-03T23:00:58.408Z,9.50
2017-09-03T23:03:24.773Z,9.50
2017-09-03T23:05:51.635Z,9.40
2017-09-03T23:08:18.297Z,9.40
2017-09-03T23:10:45.423Z,9.40
2017-09-03T23:13:11.888Z,9.40
2017-09-03T23:15:38.813Z,9.40
2017-09-03T23:18:05.749Z,9.40
2017-09-03T23:20:32.180Z,9.40
2017-09-03T23:22:59.040Z,9.30
2017-09-03T23:25:25.855Z,9.30
2017-09-03T23:27:52.898Z,9.20
2017-09-03T23:30:19.400Z,9.20
2017-09-03T23:32:45.869Z,9.20
2017-09-03T23:35:12.317Z,9.10
2017-09-03T23:37:38.712Z,9.10
2017-09-03T23:40:06.108Z,9.10
2017-09-03T23:42:33.014Z,9.00
2017-09-03T23:44:59.349Z,9.00
2017-09-03T23:47:25.861Z,9.00
2017-09-03T23:49:52.978Z,9.00
2017-09-03T23:52:19.398Z,9.00
2017-09-03T23:54:46.145Z,9.00
2017-09-03T23:57:12.595Z,9.00
2017-09-03T23:59:38.986Z,9.00
